Terminal Aerodrome Forecast
Issued by NWS

Home | Current Version | Previous Version | Text Only | Print | Product List | Glossary On
Versions: 1 2 3 4 5 6 7 8 9 10 11 12 13 14 15 16 17 18 19 20 21 22 23 24 25
000
FTUS41 KGYX 051728
TAFPSM
TAF
KPSM 051728Z 0518/0618 04009G18KT P6SM OVC012
     FM051900 04012G20KT P6SM OVC025
     FM052200 01010G17KT 5SM -RA BR OVC012
     FM060900 36006KT 5SM -DZ BR OVC015
     FM061500 03007KT P6SM OVC025=

USA.gov is the U.S. government's official web portal to all federal, state and local government web resources and services.